createdAt,value
2023-01-06T00:01:18.495Z,60.25
2023-01-06T00:03:51.287Z,60.26
2023-01-06T00:06:19.593Z,59.72
2023-01-06T00:08:46.459Z,60.85
2023-01-06T00:11:15.086Z,60.79
2023-01-06T00:13:42.437Z,61.08
2023-01-06T00:16:19.999Z,61.04
2023-01-06T00:18:47.300Z,61.17
2023-01-06T00:21:15.475Z,62.30
2023-01-06T00:23:42.379Z,62.90
2023-01-06T00:26:10.531Z,62.97
2023-01-06T00:28:38.160Z,62.73
2023-01-06T00:31:11.960Z,63.95
2023-01-06T00:33:40.955Z,63.15
2023-01-06T00:36:10.653Z,63.80
2023-01-06T00:38:38.847Z,64.59
2023-01-06T00:41:29.593Z,64.25
2023-01-06T00:43:58.219Z,64.66
2023-01-06T00:46:29.326Z,64.59
2023-01-06T00:49:05.095Z,64.85
2023-01-06T00:51:36.589Z,64.89
2023-01-06T00:54:05.217Z,65.70
2023-01-06T00:56:32.221Z,66.34
2023-01-06T00:58:59.071Z,66.00
2023-01-06T01:01:26.019Z,66.19
2023-01-06T01:03:52.919Z,65.55
2023-01-06T01:06:20.459Z,65.81
2023-01-06T01:08:47.398Z,66.75
2023-01-06T01:11:34.355Z,66.93
2023-01-06T01:14:01.245Z,66.61
2023-01-06T01:16:28.150Z,67.42
2023-01-06T01:18:55.074Z,67.14
2023-01-06T01:21:21.985Z,67.11
2023-01-06T01:23:49.032Z,67.61
2023-01-06T01:26:15.877Z,68.14
2023-01-06T01:28:42.935Z,68.46
2023-01-06T01:31:09.902Z,68.99
2023-01-06T01:33:38.140Z,69.08
2023-01-06T01:36:13.814Z,68.56
2023-01-06T01:38:40.835Z,69.28
2023-01-06T01:41:09.441Z,69.99
2023-01-06T01:43:56.304Z,70.28
2023-01-06T01:46:36.676Z,70.17
2023-01-06T01:49:18.239Z,70.42
2023-01-06T01:51:48.405Z,70.05
2023-01-06T01:54:21.634Z,70.55
2023-01-06T01:56:55.308Z,70.88
2023-01-06T01:59:26.076Z,71.36
2023-01-06T02:01:54.577Z,71.70
2023-01-06T02:04:23.329Z,71.02
2023-01-06T02:06:51.475Z,70.45
2023-01-06T02:09:26.574Z,71.22
2023-01-06T02:11:54.423Z,70.65
2023-01-06T02:14:24.183Z,70.98
2023-01-06T02:17:16.613Z,70.75
2023-01-06T02:20:10.820Z,71.46
2023-01-06T02:22:55.407Z,71.35
2023-01-06T02:25:31.460Z,70.40
2023-01-06T02:28:13.693Z,71.85
2023-01-06T02:30:53.094Z,72.08
2023-01-06T02:33:31.779Z,72.55
2023-01-06T02:36:45.205Z,71.73
2023-01-06T02:39:30.690Z,71.10
2023-01-06T02:42:17.733Z,69.81
2023-01-06T02:45:05.855Z,71.08
2023-01-06T02:47:44.833Z,70.46
2023-01-06T02:50:20.881Z,69.42
2023-01-06T02:53:06.273Z,68.98
2023-01-06T02:55:39.069Z,70.36
2023-01-06T02:58:11.176Z,69.41
2023-01-06T03:00:46.001Z,68.05
2023-01-06T03:03:20.848Z,68.21
2023-01-06T03:05:54.147Z,67.76
2023-01-06T03:08:28.602Z,68.27
2023-01-06T03:10:57.854Z,68.62
2023-01-06T03:13:49.957Z,68.24
2023-01-06T03:16:19.103Z,68.36
2023-01-06T03:18:49.925Z,68.17
2023-01-06T03:21:26.231Z,68.57
2023-01-06T03:23:53.519Z,69.02
2023-01-06T03:26:20.525Z,71.00
2023-01-06T03:28:47.610Z,70.78
2023-01-06T03:31:55.844Z,70.75
2023-01-06T03:34:48.861Z,68.93
2023-01-06T03:37:42.154Z,69.53
2023-01-06T03:40:24.405Z,68.85
2023-01-06T03:43:14.256Z,69.67
2023-01-06T03:46:11.288Z,72.25
2023-01-06T03:49:26.423Z,75.67
2023-01-06T03:52:00.646Z,76.09
2023-01-06T03:54:38.921Z,76.05
2023-01-06T03:57:15.743Z,74.22
2023-01-06T03:59:48.860Z,73.56
2023-01-06T04:02:19.221Z,72.92
2023-01-06T04:05:11.793Z,73.67
2023-01-06T04:07:41.685Z,74.05
2023-01-06T04:10:10.208Z,75.44
2023-01-06T04:12:40.444Z,75.76
2023-01-06T04:15:15.316Z,75.73
2023-01-06T04:17:45.803Z,77.31
2023-01-06T04:20:20.778Z,77.73
2023-01-06T04:22:49.667Z,78.46
2023-01-06T04:25:16.839Z,79.34
2023-01-06T04:27:44.117Z,80.23
2023-01-06T04:30:11.975Z,80.07
2023-01-06T04:32:39.731Z,80.54
2023-01-06T04:35:09.233Z,81.16
2023-01-06T04:37:36.482Z,81.90
2023-01-06T04:40:03.889Z,81.60
2023-01-06T04:42:50.735Z,82.30
2023-01-06T04:45:17.647Z,82.48
2023-01-06T04:47:44.573Z,81.77
2023-01-06T04:50:11.857Z,81.33
2023-01-06T04:52:38.797Z,79.44
2023-01-06T04:55:05.954Z,78.03
2023-01-06T04:57:32.847Z,76.32
2023-01-06T04:59:59.720Z,76.48
2023-01-06T05:02:26.652Z,76.41
2023-01-06T05:04:53.577Z,76.90
2023-01-06T05:07:20.584Z,77.43
2023-01-06T05:09:47.411Z,77.64
2023-01-06T05:12:14.247Z,76.55
2023-01-06T05:14:41.141Z,75.42
2023-01-06T05:17:07.970Z,74.94
2023-01-06T05:19:34.834Z,74.31
2023-01-06T05:22:01.896Z,74.23
2023-01-06T05:24:28.781Z,73.01
2023-01-06T05:26:55.680Z,71.93
2023-01-06T05:29:22.572Z,72.52
2023-01-06T05:31:49.635Z,72.48
2023-01-06T05:34:16.579Z,73.23
2023-01-06T05:36:43.509Z,77.91
2023-01-06T05:39:10.510Z,79.97
2023-01-06T05:41:37.399Z,81.67
2023-01-06T05:44:04.687Z,82.21
2023-01-06T05:46:31.587Z,82.37
2023-01-06T05:49:00.685Z,81.36
2023-01-06T05:51:27.614Z,79.21
2023-01-06T05:53:54.772Z,79.62
2023-01-06T05:56:22.793Z,78.35
2023-01-06T05:58:54.072Z,76.26
2023-01-06T06:01:31.631Z,73.23
2023-01-06T06:03:58.978Z,73.05
2023-01-06T06:06:27.994Z,72.86
2023-01-06T06:08:55.022Z,71.75
2023-01-06T06:11:22.570Z,70.65
2023-01-06T06:13:55.108Z,68.90
2023-01-06T06:16:27.479Z,66.57
2023-01-06T06:18:57.208Z,68.01
2023-01-06T06:21:26.827Z,67.47
2023-01-06T06:23:55.731Z,66.88
2023-01-06T06:26:23.655Z,66.79
2023-01-06T06:28:50.657Z,66.06
2023-01-06T06:31:20.761Z,65.09
2023-01-06T06:33:53.512Z,65.36
2023-01-06T06:36:20.980Z,65.36
2023-01-06T06:38:50.176Z,65.50
2023-01-06T06:41:17.819Z,65.54
2023-01-06T06:43:45.666Z,61.80
2023-01-06T06:46:12.744Z,58.88
2023-01-06T06:48:39.693Z,62.31
2023-01-06T06:51:09.396Z,61.94
2023-01-06T06:53:37.113Z,66.68
2023-01-06T06:56:05.365Z,67.19
2023-01-06T06:58:32.596Z,64.23
2023-01-06T07:00:59.493Z,62.96
2023-01-06T07:03:26.445Z,61.68
2023-01-06T07:05:54.170Z,61.03
2023-01-06T07:08:21.082Z,59.17
2023-01-06T07:10:47.992Z,56.79
2023-01-06T07:13:14.867Z,55.81
2023-01-06T07:15:41.880Z,55.87
2023-01-06T07:18:08.980Z,53.55
2023-01-06T07:20:37.921Z,52.51
2023-01-06T07:23:05.634Z,52.22
2023-01-06T07:25:33.559Z,51.56
2023-01-06T07:28:05.611Z,48.96
2023-01-06T07:30:33.791Z,50.60
2023-01-06T07:33:01.084Z,49.68
2023-01-06T07:35:28.487Z,49.55
2023-01-06T07:37:58.163Z,49.73
2023-01-06T07:40:25.230Z,48.80
2023-01-06T07:42:52.091Z,46.35
2023-01-06T07:45:19.032Z,48.49
2023-01-06T07:47:45.929Z,48.54
2023-01-06T07:50:13.165Z,47.88
2023-01-06T07:52:40.180Z,49.13
2023-01-06T07:55:07.724Z,48.80
2023-01-06T07:57:35.942Z,48.63
2023-01-06T08:00:03.133Z,48.54
2023-01-06T08:02:39.137Z,49.00
2023-01-06T08:05:06.298Z,49.57
2023-01-06T08:07:33.205Z,50.87
2023-01-06T08:10:00.159Z,50.03
2023-01-06T08:12:27.070Z,51.67
2023-01-06T08:14:54.035Z,53.68
2023-01-06T08:17:21.036Z,52.84
2023-01-06T08:19:47.958Z,50.97
2023-01-06T08:22:14.884Z,51.07
2023-01-06T08:24:41.736Z,51.62
2023-01-06T08:27:08.680Z,50.17
2023-01-06T08:29:35.584Z,52.09
2023-01-06T08:32:10.281Z,54.90
2023-01-06T08:34:38.241Z,55.94
2023-01-06T08:37:05.224Z,54.58
2023-01-06T08:39:32.184Z,50.70
2023-01-06T08:41:59.138Z,49.03
2023-01-06T08:44:26.041Z,49.07
2023-01-06T08:46:52.950Z,47.74
2023-01-06T08:49:19.855Z,46.31
2023-01-06T08:51:46.835Z,45.63
2023-01-06T08:54:14.724Z,44.25
2023-01-06T08:56:43.674Z,45.53
2023-01-06T08:59:14.357Z,42.69
2023-01-06T09:01:42.339Z,42.12
2023-01-06T09:04:10.435Z,39.00
2023-01-06T09:06:38.321Z,40.55
2023-01-06T09:09:08.024Z,40.50
2023-01-06T09:11:35.337Z,42.08
2023-01-06T09:14:02.260Z,43.72
2023-01-06T09:16:29.805Z,42.72
2023-01-06T09:18:56.697Z,44.05
2023-01-06T09:21:25.837Z,44.19
2023-01-06T09:23:52.877Z,42.64
2023-01-06T09:26:21.689Z,43.89
2023-01-06T09:28:48.658Z,43.08
2023-01-06T09:31:15.745Z,43.98
2023-01-06T09:33:43.477Z,43.62
2023-01-06T09:36:10.381Z,41.71
2023-01-06T09:38:37.235Z,43.29
2023-01-06T09:41:18.942Z,42.05
2023-01-06T09:43:54.480Z,43.49
2023-01-06T09:46:27.074Z,43.74
2023-01-06T09:49:16.235Z,43.14
2023-01-06T09:51:44.168Z,42.46
2023-01-06T09:54:25.937Z,42.53
2023-01-06T09:57:06.276Z,41.86
2023-01-06T09:59:50.372Z,42.84
2023-01-06T10:02:26.534Z,42.17
2023-01-06T10:04:53.691Z,42.86
2023-01-06T10:07:43.367Z,42.25
2023-01-06T10:10:23.184Z,42.88
2023-01-06T10:13:24.228Z,42.59
2023-01-06T10:16:15.818Z,42.11
2023-01-06T10:18:53.293Z,41.81
2023-01-06T10:21:34.753Z,42.29
2023-01-06T10:24:01.616Z,40.65
2023-01-06T10:26:31.970Z,41.79
2023-01-06T10:29:09.652Z,41.51
2023-01-06T10:31:38.857Z,42.13
2023-01-06T10:34:14.329Z,39.83
2023-01-06T10:36:44.840Z,39.21
2023-01-06T10:39:19.405Z,39.04
2023-01-06T10:42:18.260Z,37.16
2023-01-06T10:44:45.300Z,37.21
2023-01-06T10:47:38.365Z,37.04
2023-01-06T10:50:05.987Z,37.38
2023-01-06T10:52:34.036Z,36.54
2023-01-06T10:55:05.380Z,37.66
2023-01-06T10:57:40.365Z,36.48
2023-01-06T11:00:22.595Z,38.67
2023-01-06T11:02:57.817Z,39.53
2023-01-06T11:05:34.244Z,37.06
2023-01-06T11:08:15.723Z,36.39
2023-01-06T11:10:53.450Z,38.17
2023-01-06T11:13:33.574Z,37.84
2023-01-06T11:16:18.754Z,38.12
2023-01-06T11:19:10.920Z,36.57
2023-01-06T11:21:43.732Z,33.71
2023-01-06T11:24:25.163Z,33.33
2023-01-06T11:27:01.373Z,32.02
2023-01-06T11:29:29.795Z,31.94
2023-01-06T11:31:59.751Z,31.86
2023-01-06T11:34:29.241Z,30.72
2023-01-06T11:36:57.046Z,30.58
2023-01-06T11:39:36.101Z,29.41
2023-01-06T11:42:11.061Z,29.91
2023-01-06T11:44:39.826Z,32.49
2023-01-06T11:47:15.202Z,34.27
2023-01-06T11:49:51.601Z,34.70
2023-01-06T11:52:32.718Z,34.85
2023-01-06T11:55:02.242Z,35.02
2023-01-06T11:57:32.175Z,34.57
2023-01-06T12:00:19.311Z,34.78
2023-01-06T12:03:07.713Z,38.30
2023-01-06T12:05:52.121Z,37.07
2023-01-06T12:08:23.459Z,35.05
2023-01-06T12:11:27.961Z,36.55
2023-01-06T12:14:13.169Z,36.47
2023-01-06T12:16:52.609Z,35.86
2023-01-06T12:19:31.801Z,33.93
2023-01-06T12:22:00.549Z,32.21
2023-01-06T12:24:33.437Z,31.03
2023-01-06T12:27:05.549Z,33.08
2023-01-06T12:29:34.488Z,33.75
2023-01-06T12:32:22.520Z,35.61
2023-01-06T12:34:52.258Z,34.66
2023-01-06T12:37:48.406Z,36.70
2023-01-06T12:40:39.556Z,38.99
2023-01-06T12:43:18.399Z,40.28
2023-01-06T12:46:00.647Z,41.42
2023-01-06T12:48:33.601Z,41.46
2023-01-06T12:51:24.118Z,42.09
2023-01-06T12:53:59.611Z,42.31
2023-01-06T12:56:52.821Z,42.61
2023-01-06T12:59:54.839Z,43.01
2023-01-06T13:02:48.245Z,42.66
2023-01-06T13:05:47.268Z,41.36
2023-01-06T13:08:35.328Z,40.67
2023-01-06T13:11:22.991Z,41.67
2023-01-06T13:13:52.572Z,40.83
2023-01-06T13:16:37.680Z,40.12
2023-01-06T13:19:21.552Z,39.92
2023-01-06T13:21:57.221Z,39.35
2023-01-06T13:24:45.584Z,38.88
2023-01-06T13:27:33.739Z,39.51
2023-01-06T13:30:34.611Z,39.78
2023-01-06T13:33:33.420Z,39.39
2023-01-06T13:36:34.213Z,39.70
2023-01-06T13:39:11.299Z,40.09
2023-01-06T13:41:40.968Z,40.37
2023-01-06T13:44:20.889Z,39.85
2023-01-06T13:46:50.937Z,39.20
2023-01-06T13:49:19.400Z,39.59
2023-01-06T13:51:47.473Z,39.93
2023-01-06T13:54:42.104Z,40.77
2023-01-06T13:57:29.229Z,40.87
2023-01-06T14:00:04.960Z,39.45
2023-01-06T14:02:59.245Z,39.10
2023-01-06T14:05:27.936Z,38.67
2023-01-06T14:07:59.840Z,37.89
2023-01-06T14:10:43.992Z,39.54
2023-01-06T14:13:39.971Z,41.03
2023-01-06T14:16:11.544Z,42.36
2023-01-06T14:18:38.614Z,42.18
2023-01-06T14:21:16.111Z,42.11
2023-01-06T14:23:54.888Z,42.02
2023-01-06T14:26:42.559Z,41.58
2023-01-06T14:29:37.456Z,60.43
2023-01-06T14:32:04.452Z,68.35
2023-01-06T14:34:32.684Z,72.37
2023-01-06T14:37:00.838Z,73.85
2023-01-06T14:39:33.276Z,76.11
2023-01-06T14:42:08.651Z,74.93
2023-01-06T14:44:36.811Z,77.34
2023-01-06T14:47:15.052Z,77.76
2023-01-06T14:49:53.827Z,77.50
2023-01-06T14:52:31.861Z,76.73
2023-01-06T14:55:00.646Z,77.88
2023-01-06T14:57:38.552Z,78.94
2023-01-06T15:00:08.141Z,80.96
2023-01-06T15:02:35.573Z,81.68
2023-01-06T15:05:03.095Z,81.79
2023-01-06T15:07:30.627Z,82.30
2023-01-06T15:10:21.264Z,82.96
2023-01-06T15:12:56.666Z,80.92
2023-01-06T15:15:30.235Z,82.47
2023-01-06T15:17:59.989Z,81.78
2023-01-06T15:20:35.787Z,82.00
2023-01-06T15:23:03.036Z,81.97
2023-01-06T15:25:32.017Z,81.87
2023-01-06T15:27:58.884Z,81.78
2023-01-06T15:30:28.352Z,82.03
2023-01-06T15:32:56.592Z,82.53
2023-01-06T15:35:29.476Z,82.92
2023-01-06T15:38:04.561Z,83.30
2023-01-06T15:40:32.411Z,83.77
2023-01-06T15:42:59.360Z,81.88
2023-01-06T15:45:32.435Z,82.71
2023-01-06T15:48:02.748Z,82.74
2023-01-06T15:50:31.903Z,83.59
2023-01-06T15:53:04.247Z,83.87
2023-01-06T15:55:43.136Z,84.00
2023-01-06T15:58:20.766Z,85.35
2023-01-06T16:00:51.145Z,84.40
2023-01-06T16:03:24.046Z,84.56
2023-01-06T16:05:57.664Z,82.79
2023-01-06T16:08:30.579Z,83.63
2023-01-06T16:11:16.131Z,85.54
2023-01-06T16:13:57.458Z,86.40
2023-01-06T16:16:31.657Z,88.55
2023-01-06T16:18:58.780Z,87.96
2023-01-06T16:21:30.357Z,88.04
2023-01-06T16:24:00.286Z,86.92
2023-01-06T16:26:30.149Z,87.51
2023-01-06T16:29:00.491Z,88.75
2023-01-06T16:31:33.325Z,90.24
2023-01-06T16:34:16.615Z,89.75
2023-01-06T16:36:43.669Z,87.31
2023-01-06T16:39:10.558Z,84.84
2023-01-06T16:41:37.553Z,86.12
2023-01-06T16:44:04.603Z,88.20
2023-01-06T16:46:31.658Z,88.37
2023-01-06T16:49:06.164Z,87.83
2023-01-06T16:51:33.869Z,87.86
2023-01-06T16:54:00.946Z,87.33
2023-01-06T16:56:29.231Z,86.99
2023-01-06T16:58:56.543Z,88.31
2023-01-06T17:01:23.787Z,88.95
2023-01-06T17:03:55.789Z,90.81
2023-01-06T17:06:26.064Z,89.28
2023-01-06T17:08:57.072Z,86.22
2023-01-06T17:11:27.168Z,83.15
2023-01-06T17:13:57.378Z,82.08
2023-01-06T17:16:29.877Z,81.21
2023-01-06T17:19:02.505Z,84.17
2023-01-06T17:21:38.299Z,86.31
2023-01-06T17:24:18.297Z,84.11
2023-01-06T17:26:55.957Z,82.40
2023-01-06T17:29:23.656Z,81.72
2023-01-06T17:31:53.020Z,81.60
2023-01-06T17:34:24.957Z,84.06
2023-01-06T17:36:55.887Z,85.47
2023-01-06T17:39:31.251Z,86.43
2023-01-06T17:42:03.955Z,87.58
2023-01-06T17:44:58.327Z,86.52
2023-01-06T17:47:29.274Z,86.11
2023-01-06T17:49:59.141Z,86.86
2023-01-06T17:52:33.042Z,87.85
2023-01-06T17:55:43.288Z,87.70
2023-01-06T17:58:22.499Z,87.47
2023-01-06T18:00:49.667Z,88.31
2023-01-06T18:03:24.294Z,87.65
2023-01-06T18:05:57.823Z,85.00
2023-01-06T18:08:26.482Z,83.48
2023-01-06T18:11:03.309Z,80.40
2023-01-06T18:13:37.754Z,79.12
2023-01-06T18:16:27.818Z,78.71
2023-01-06T18:19:03.303Z,78.06
2023-01-06T18:21:36.269Z,80.30
2023-01-06T18:24:30.261Z,80.49
2023-01-06T18:26:59.582Z,79.78
2023-01-06T18:29:37.881Z,80.05
2023-01-06T18:32:25.069Z,81.52
2023-01-06T18:34:54.708Z,82.07
2023-01-06T18:37:32.635Z,83.13
2023-01-06T18:40:04.942Z,83.73
2023-01-06T18:42:41.770Z,84.78
2023-01-06T18:45:08.709Z,84.80
2023-01-06T18:47:38.245Z,85.33
2023-01-06T18:50:43.881Z,84.84
2023-01-06T18:53:14.072Z,84.96
2023-01-06T18:55:45.975Z,84.81
2023-01-06T18:58:26.758Z,84.79
2023-01-06T19:00:57.372Z,85.73
2023-01-06T19:03:37.027Z,86.21
2023-01-06T19:06:33.509Z,84.83
2023-01-06T19:09:02.935Z,83.29
2023-01-06T19:11:32.456Z,79.86
2023-01-06T19:14:01.979Z,80.17
2023-01-06T19:16:36.403Z,79.95
2023-01-06T19:19:34.792Z,79.03
2023-01-06T19:22:21.908Z,81.58
2023-01-06T19:24:53.321Z,80.14
2023-01-06T19:27:20.135Z,80.38
2023-01-06T19:29:47.078Z,81.62
2023-01-06T19:32:15.412Z,81.38
2023-01-06T19:34:42.417Z,80.55
2023-01-06T19:37:18.118Z,82.02
2023-01-06T19:39:50.826Z,84.11
2023-01-06T19:42:23.787Z,84.96
2023-01-06T19:44:54.482Z,84.42
2023-01-06T19:47:47.684Z,84.14
2023-01-06T19:50:23.737Z,83.50
2023-01-06T19:52:58.995Z,84.51
2023-01-06T19:55:28.196Z,85.49
2023-01-06T19:57:59.188Z,86.32
2023-01-06T20:00:40.053Z,85.79
2023-01-06T20:03:27.785Z,82.69
2023-01-06T20:05:54.809Z,82.55
2023-01-06T20:08:21.669Z,82.41
2023-01-06T20:10:48.837Z,81.59
2023-01-06T20:13:15.824Z,83.69
2023-01-06T20:15:42.762Z,82.88
2023-01-06T20:18:09.651Z,82.63
2023-01-06T20:20:36.558Z,81.63
2023-01-06T20:23:03.513Z,81.22
2023-01-06T20:25:30.500Z,80.55
2023-01-06T20:27:57.517Z,82.81
2023-01-06T20:30:24.560Z,82.08
2023-01-06T20:32:51.575Z,83.36
2023-01-06T20:35:20.210Z,86.59
2023-01-06T20:37:47.077Z,87.68
2023-01-06T20:40:14.136Z,88.87
2023-01-06T20:42:41.118Z,89.92
2023-01-06T20:45:08.436Z,92.73
2023-01-06T20:47:35.440Z,93.44
2023-01-06T20:50:02.471Z,97.31
2023-01-06T20:52:29.382Z,99.93
2023-01-06T20:54:56.281Z,99.95
2023-01-06T20:57:23.256Z,99.13
2023-01-06T20:59:50.231Z,100.00
2023-01-06T21:02:17.358Z,100.00
2023-01-06T21:04:44.383Z,100.00
2023-01-06T21:07:11.361Z,100.00
2023-01-06T21:09:38.257Z,96.50
2023-01-06T21:12:05.455Z,94.24
2023-01-06T21:14:33.964Z,94.46
2023-01-06T21:17:01.350Z,95.64
2023-01-06T21:19:28.302Z,95.42
2023-01-06T21:21:55.259Z,93.56
2023-01-06T21:24:22.257Z,92.75
2023-01-06T21:26:49.153Z,89.94
2023-01-06T21:29:16.204Z,87.00
2023-01-06T21:31:43.940Z,89.81
2023-01-06T21:34:11.061Z,90.84
2023-01-06T21:36:37.940Z,91.60
2023-01-06T21:39:07.616Z,93.45
2023-01-06T21:41:52.963Z,94.81
2023-01-06T21:44:21.275Z,97.00
2023-01-06T21:46:48.174Z,98.64
2023-01-06T21:49:15.518Z,100.00
2023-01-06T21:51:42.614Z,100.00
2023-01-06T21:54:09.921Z,100.00
2023-01-06T21:56:36.865Z,100.00
2023-01-06T21:59:04.012Z,100.00
2023-01-06T22:01:30.987Z,100.00
2023-01-06T22:03:57.950Z,100.00
2023-01-06T22:06:25.667Z,96.70
2023-01-06T22:08:54.351Z,93.89
2023-01-06T22:11:21.377Z,91.24
2023-01-06T22:13:48.460Z,86.70
2023-01-06T22:16:15.688Z,84.82
2023-01-06T22:18:42.789Z,82.68
2023-01-06T22:21:09.702Z,83.54
2023-01-06T22:23:37.139Z,86.03
2023-01-06T22:26:04.430Z,86.71
2023-01-06T22:28:31.332Z,86.01
2023-01-06T22:30:58.321Z,86.83
2023-01-06T22:33:25.304Z,85.10
2023-01-06T22:35:57.093Z,84.63
2023-01-06T22:38:24.057Z,84.19
2023-01-06T22:40:51.124Z,83.49
2023-01-06T22:43:20.754Z,84.34
2023-01-06T22:45:56.818Z,85.08
2023-01-06T22:48:24.934Z,84.75
2023-01-06T22:51:04.573Z,84.79
2023-01-06T22:53:32.529Z,83.26
2023-01-06T22:56:10.434Z,81.91
2023-01-06T22:58:39.308Z,80.86
2023-01-06T23:01:07.641Z,80.26
2023-01-06T23:03:35.430Z,79.08
2023-01-06T23:06:11.038Z,77.63
2023-01-06T23:08:48.027Z,75.28
2023-01-06T23:11:22.636Z,73.51
2023-01-06T23:13:49.588Z,72.95
2023-01-06T23:16:19.190Z,72.74
2023-01-06T23:18:48.364Z,71.11
2023-01-06T23:21:21.576Z,73.22
2023-01-06T23:23:50.330Z,74.84
2023-01-06T23:26:22.478Z,78.02
2023-01-06T23:28:51.470Z,79.48
2023-01-06T23:31:21.253Z,80.62
2023-01-06T23:33:51.408Z,81.71
2023-01-06T23:36:20.329Z,82.74
2023-01-06T23:38:47.579Z,82.79
2023-01-06T23:41:20.255Z,82.88
2023-01-06T23:43:47.515Z,82.59
2023-01-06T23:46:20.157Z,83.60
2023-01-06T23:48:48.413Z,81.78
2023-01-06T23:51:16.275Z,81.60
2023-01-06T23:53:44.025Z,78.98
2023-01-06T23:56:13.967Z,80.10
2023-01-06T23:58:43.033Z,80.98
